createdAt,value
2019-02-19T00:00:33.918Z,7.21
2019-02-19T00:01:33.874Z,7.24
2019-02-19T00:02:33.857Z,7.28
2019-02-19T00:03:33.857Z,7.23
2019-02-19T00:04:33.842Z,7.23
2019-02-19T00:05:33.862Z,7.15
2019-02-19T00:06:33.811Z,7.15
2019-02-19T00:07:33.826Z,7.12
2019-02-19T00:08:33.818Z,7.09
2019-02-19T00:09:33.788Z,7.03
2019-02-19T00:10:33.802Z,7.05
2019-02-19T00:11:33.802Z,6.92
2019-02-19T00:12:33.750Z,7.05
2019-02-19T00:13:33.732Z,6.99
2019-02-19T00:14:33.728Z,6.97
2019-02-19T00:15:33.748Z,7.06
2019-02-19T00:16:33.737Z,7.05
2019-02-19T00:17:33.696Z,7.06
2019-02-19T00:18:33.686Z,6.98
2019-02-19T00:19:33.684Z,7.06
2019-02-19T00:20:33.664Z,7.02
2019-02-19T00:21:33.682Z,7.06
2019-02-19T00:22:33.717Z,7.09
2019-02-19T00:23:33.643Z,7.02
2019-02-19T00:24:33.612Z,7.03
2019-02-19T00:25:33.610Z,6.99
2019-02-19T00:26:33.628Z,7.02
2019-02-19T00:27:34.060Z,6.91
2019-02-19T00:28:33.571Z,6.98
2019-02-19T00:29:33.577Z,6.97
2019-02-19T00:30:33.555Z,6.95
2019-02-19T00:31:33.568Z,6.95
2019-02-19T00:32:33.534Z,6.84
2019-02-19T00:33:33.525Z,6.80
2019-02-19T00:34:33.550Z,6.80
2019-02-19T00:35:33.498Z,6.88
2019-02-19T00:36:33.535Z,6.91
2019-02-19T00:37:33.468Z,6.87
2019-02-19T00:38:33.458Z,6.87
2019-02-19T00:39:33.453Z,6.92
2019-02-19T00:40:33.442Z,6.94
2019-02-19T00:41:33.426Z,6.87
2019-02-19T00:42:33.446Z,6.87
2019-02-19T00:43:33.443Z,6.99
2019-02-19T00:44:33.406Z,6.88
2019-02-19T00:45:33.405Z,6.80
2019-02-19T00:46:33.395Z,6.92
2019-02-19T00:47:33.400Z,6.81
2019-02-19T00:48:33.386Z,6.80
2019-02-19T00:49:33.391Z,6.88
2019-02-19T00:50:33.329Z,6.84
2019-02-19T00:51:33.317Z,6.79
2019-02-19T00:52:33.346Z,6.85
2019-02-19T00:53:33.297Z,6.80
2019-02-19T00:54:33.294Z,6.79
2019-02-19T00:55:33.273Z,6.77
2019-02-19T00:56:33.262Z,6.74
2019-02-19T00:57:33.305Z,6.77
2019-02-19T00:58:33.248Z,6.85
2019-02-19T00:59:33.292Z,6.74
2019-02-19T01:00:33.215Z,6.70
2019-02-19T01:01:33.214Z,6.62
2019-02-19T01:02:33.243Z,6.67
2019-02-19T01:03:33.180Z,6.76
2019-02-19T01:04:33.169Z,6.73
2019-02-19T01:05:33.180Z,6.67
2019-02-19T01:06:33.147Z,6.71
2019-02-19T01:07:33.144Z,6.66
2019-02-19T01:08:33.190Z,6.71
2019-02-19T01:09:33.133Z,6.69
2019-02-19T01:10:33.130Z,6.66
2019-02-19T01:11:33.101Z,6.70
2019-02-19T01:12:33.122Z,6.71
2019-02-19T01:13:33.115Z,6.77
2019-02-19T01:14:33.068Z,6.71
2019-02-19T01:15:33.064Z,6.79
2019-02-19T01:16:33.041Z,6.80
2019-02-19T01:17:33.082Z,6.74
2019-02-19T01:18:33.012Z,6.84
2019-02-19T01:19:33.011Z,6.74
2019-02-19T01:20:32.999Z,6.77
2019-02-19T01:21:33.033Z,6.69
2019-02-19T01:22:32.976Z,6.76
2019-02-19T01:23:32.957Z,6.77
2019-02-19T01:24:32.975Z,6.70
2019-02-19T01:25:32.930Z,6.70
2019-02-19T01:26:32.950Z,6.73
2019-02-19T01:27:32.920Z,6.76
2019-02-19T01:28:32.929Z,6.71
2019-02-19T01:29:32.940Z,6.79
2019-02-19T01:30:32.879Z,6.66
2019-02-19T01:31:32.877Z,6.64
2019-02-19T01:32:32.856Z,6.74
2019-02-19T01:33:32.935Z,6.67
2019-02-19T01:34:32.834Z,6.62
2019-02-19T01:35:32.904Z,6.70
2019-02-19T01:36:32.815Z,6.66
2019-02-19T01:37:32.798Z,6.62
2019-02-19T01:38:32.793Z,6.66
2019-02-19T01:39:32.818Z,6.56
2019-02-19T01:40:32.771Z,6.55
2019-02-19T01:41:32.819Z,6.58
2019-02-19T01:42:32.824Z,6.55
2019-02-19T01:43:32.752Z,6.58
2019-02-19T01:44:32.743Z,6.48
2019-02-19T01:45:34.344Z,6.55
2019-02-19T01:46:32.704Z,6.58
2019-02-19T01:47:32.758Z,6.49
2019-02-19T01:48:32.684Z,6.54
2019-02-19T01:49:32.674Z,6.55
2019-02-19T01:50:32.669Z,6.59
2019-02-19T01:51:32.653Z,6.62
2019-02-19T01:52:32.636Z,6.54
2019-02-19T01:53:32.666Z,6.55
2019-02-19T01:54:32.634Z,6.54
2019-02-19T01:55:32.605Z,6.55
2019-02-19T01:56:32.626Z,6.58
2019-02-19T01:57:32.583Z,6.51
2019-02-19T01:58:32.578Z,6.58
2019-02-19T01:59:32.573Z,6.52
2019-02-19T02:00:32.549Z,6.55
2019-02-19T02:01:32.537Z,6.58
2019-02-19T02:02:32.557Z,6.55
2019-02-19T02:03:32.520Z,6.56
2019-02-19T02:04:32.502Z,6.54
2019-02-19T02:05:32.496Z,6.55
2019-02-19T02:06:32.506Z,6.55
2019-02-19T02:07:32.528Z,6.55
2019-02-19T02:08:32.460Z,6.55
2019-02-19T02:09:32.462Z,6.55
2019-02-19T02:10:32.433Z,6.55
2019-02-19T02:11:32.441Z,6.59
2019-02-19T02:12:32.460Z,6.49
2019-02-19T02:13:32.436Z,6.54
2019-02-19T02:14:32.394Z,6.56
2019-02-19T02:15:32.385Z,6.52
2019-02-19T02:16:32.372Z,6.48
2019-02-19T02:17:32.355Z,6.55
2019-02-19T02:18:32.382Z,6.49
2019-02-19T02:19:32.346Z,6.58
2019-02-19T02:20:32.328Z,6.49
2019-02-19T02:21:32.319Z,6.48
2019-02-19T02:22:32.303Z,6.37
2019-02-19T02:23:32.335Z,6.43
2019-02-19T02:24:32.300Z,6.41
2019-02-19T02:25:32.277Z,6.33
2019-02-19T02:26:32.257Z,6.28
2019-02-19T02:27:32.245Z,6.38
2019-02-19T02:28:32.242Z,6.31
2019-02-19T02:29:32.276Z,6.40
2019-02-19T02:30:32.214Z,6.30
2019-02-19T02:31:32.233Z,6.22
2019-02-19T02:32:32.194Z,6.33
2019-02-19T02:33:32.178Z,6.36
2019-02-19T02:34:32.224Z,6.31
2019-02-19T02:35:32.179Z,6.34
2019-02-19T02:36:32.151Z,6.33
2019-02-19T02:37:32.141Z,6.43
2019-02-19T02:38:32.157Z,6.31
2019-02-19T02:39:32.167Z,6.36
2019-02-19T02:40:32.115Z,6.37
2019-02-19T02:41:32.119Z,6.30
2019-02-19T02:42:32.086Z,6.34
2019-02-19T02:43:32.083Z,6.28
2019-02-19T02:44:32.115Z,6.33
2019-02-19T02:45:32.055Z,6.33
2019-02-19T02:46:32.037Z,6.19
2019-02-19T02:47:32.032Z,6.18
2019-02-19T02:48:32.029Z,6.30
2019-02-19T02:49:32.010Z,6.21
2019-02-19T02:50:32.055Z,6.21
2019-02-19T02:51:31.987Z,6.22
2019-02-19T02:52:31.976Z,6.17
2019-02-19T02:53:31.971Z,6.27
2019-02-19T02:54:31.965Z,6.17
2019-02-19T02:55:31.969Z,6.17
2019-02-19T02:56:31.968Z,6.15
2019-02-19T02:57:31.953Z,6.15
2019-02-19T02:58:31.914Z,6.08
2019-02-19T02:59:31.895Z,6.11
2019-02-19T03:00:31.887Z,6.14
2019-02-19T03:01:31.924Z,6.08
2019-02-19T03:02:31.860Z,6.08
2019-02-19T03:03:31.877Z,6.08
2019-02-19T03:04:31.845Z,6.12
2019-02-19T03:05:31.832Z,6.17
2019-02-19T03:06:31.824Z,6.22
2019-02-19T03:07:31.849Z,6.09
2019-02-19T03:08:31.804Z,6.06
2019-02-19T03:09:31.805Z,6.18
2019-02-19T03:10:31.814Z,6.06
2019-02-19T03:11:31.793Z,6.04
2019-02-19T03:12:31.792Z,6.12
2019-02-19T03:13:31.758Z,6.12
2019-02-19T03:14:31.733Z,6.06
2019-02-19T03:15:31.733Z,6.14
2019-02-19T03:16:31.720Z,6.08
2019-02-19T03:17:31.759Z,6.11
2019-02-19T03:18:31.729Z,6.08
2019-02-19T03:19:31.690Z,6.17
2019-02-19T03:20:31.671Z,6.11
2019-02-19T03:21:31.664Z,6.12
2019-02-19T03:22:31.693Z,6.04
2019-02-19T03:23:31.655Z,6.00
2019-02-19T03:24:31.628Z,6.11
2019-02-19T03:25:31.609Z,6.11
2019-02-19T03:26:31.611Z,6.17
2019-02-19T03:27:31.590Z,6.06
2019-02-19T03:28:31.613Z,6.11
2019-02-19T03:29:31.598Z,6.11
2019-02-19T03:30:31.566Z,6.09
2019-02-19T03:31:31.545Z,6.08
2019-02-19T03:32:31.538Z,6.11
2019-02-19T03:33:31.567Z,6.12
2019-02-19T03:34:31.516Z,6.06
2019-02-19T03:35:31.517Z,6.12
2019-02-19T03:36:31.492Z,6.14
2019-02-19T03:37:31.508Z,6.09
2019-02-19T03:38:31.500Z,6.11
2019-02-19T03:39:31.508Z,6.08
2019-02-19T03:40:32.764Z,6.09
2019-02-19T03:41:31.477Z,6.01
2019-02-19T03:42:31.432Z,6.14
2019-02-19T03:43:31.417Z,6.04
2019-02-19T03:44:31.401Z,5.99
2019-02-19T03:45:31.444Z,6.09
2019-02-19T03:46:31.382Z,6.08
2019-02-19T03:47:31.406Z,6.11
2019-02-19T03:48:31.360Z,6.06
2019-02-19T03:49:31.443Z,6.08
2019-02-19T03:50:31.377Z,6.00
2019-02-19T03:51:31.326Z,5.97
2019-02-19T03:52:31.332Z,6.08
2019-02-19T03:53:31.309Z,6.12
2019-02-19T03:54:31.334Z,6.06
2019-02-19T03:55:31.328Z,6.08
2019-02-19T03:56:31.272Z,6.11
2019-02-19T03:57:31.270Z,6.12
2019-02-19T03:58:31.253Z,6.06
2019-02-19T03:59:31.251Z,6.03
2019-02-19T04:00:31.243Z,6.14
2019-02-19T04:01:31.256Z,5.96
2019-02-19T04:02:31.248Z,5.99
2019-02-19T04:03:31.204Z,5.96
2019-02-19T04:04:31.185Z,5.93
2019-02-19T04:05:31.210Z,5.90
2019-02-19T04:06:32.457Z,5.96
2019-02-19T04:07:31.190Z,5.96
2019-02-19T04:08:31.144Z,5.93
2019-02-19T04:09:31.182Z,5.93
2019-02-19T04:10:31.121Z,5.94
2019-02-19T04:11:31.153Z,5.94
2019-02-19T04:12:31.099Z,5.94
2019-02-19T04:13:31.089Z,5.94
2019-02-19T04:14:31.079Z,5.90
2019-02-19T04:15:31.090Z,5.93
2019-02-19T04:16:31.057Z,5.93
2019-02-19T04:17:31.102Z,5.94
2019-02-19T04:18:31.045Z,5.94
2019-02-19T04:19:31.024Z,5.90
2019-02-19T04:20:31.014Z,5.99
2019-02-19T04:21:31.007Z,5.93
2019-02-19T04:22:31.068Z,5.90
2019-02-19T04:23:30.975Z,5.91
2019-02-19T04:24:30.964Z,5.90
2019-02-19T04:25:30.974Z,5.96
2019-02-19T04:26:30.953Z,5.94
2019-02-19T04:27:30.942Z,5.94
2019-02-19T04:28:30.993Z,5.94
2019-02-19T04:29:30.910Z,5.94
2019-02-19T04:30:30.910Z,6.01
2019-02-19T04:31:31.846Z,5.90
2019-02-19T04:32:30.877Z,5.94
2019-02-19T04:33:30.915Z,5.97
2019-02-19T04:34:30.857Z,5.94
2019-02-19T04:35:30.903Z,5.99
2019-02-19T04:36:30.853Z,5.93
2019-02-19T04:37:30.856Z,5.93
2019-02-19T04:38:30.833Z,6.08
2019-02-19T04:39:30.843Z,6.15
2019-02-19T04:40:30.802Z,6.12
2019-02-19T04:41:30.785Z,6.04
2019-02-19T04:42:30.772Z,6.04
2019-02-19T04:43:30.774Z,6.08
2019-02-19T04:44:30.794Z,6.15
2019-02-19T04:45:30.757Z,6.11
2019-02-19T04:46:31.791Z,6.12
2019-02-19T04:47:30.723Z,5.99
2019-02-19T04:48:30.716Z,6.09
2019-02-19T04:49:30.755Z,6.11
2019-02-19T04:50:30.698Z,6.04
2019-02-19T04:51:30.671Z,6.06
2019-02-19T04:52:30.659Z,6.11
2019-02-19T04:53:30.650Z,6.11
2019-02-19T04:54:30.661Z,6.17
2019-02-19T04:55:30.714Z,6.11
2019-02-19T04:56:30.614Z,6.04
2019-02-19T04:57:30.612Z,6.04
2019-02-19T04:58:30.597Z,6.14
2019-02-19T04:59:30.671Z,5.99
2019-02-19T05:00:30.573Z,5.93
2019-02-19T05:01:30.567Z,5.97
2019-02-19T05:02:30.574Z,5.99
2019-02-19T05:03:30.538Z,6.00
2019-02-19T05:04:30.535Z,5.96
2019-02-19T05:05:30.563Z,5.97
2019-02-19T05:06:30.512Z,6.00
2019-02-19T05:07:30.558Z,5.89
2019-02-19T05:08:30.495Z,5.93
2019-02-19T05:09:30.493Z,5.85
2019-02-19T05:10:30.514Z,5.86
2019-02-19T05:11:30.477Z,5.91
2019-02-19T05:12:30.494Z,5.93
2019-02-19T05:13:30.439Z,5.89
2019-02-19T05:14:30.424Z,5.93
2019-02-19T05:15:30.491Z,5.89
2019-02-19T05:16:30.402Z,5.91
2019-02-19T05:17:30.393Z,5.93
2019-02-19T05:18:30.404Z,5.85
2019-02-19T05:19:30.417Z,5.82
2019-02-19T05:20:30.373Z,5.85
2019-02-19T05:21:30.363Z,5.82
2019-02-19T05:22:30.382Z,5.90
2019-02-19T05:23:30.359Z,5.81
2019-02-19T05:24:30.315Z,5.83
2019-02-19T05:25:30.303Z,5.83
2019-02-19T05:26:30.293Z,5.90
2019-02-19T05:27:30.363Z,5.90
2019-02-19T05:28:30.309Z,5.81
2019-02-19T05:29:30.259Z,5.83
2019-02-19T05:30:30.253Z,5.86
2019-02-19T05:31:30.280Z,5.85
2019-02-19T05:32:30.243Z,5.79
2019-02-19T05:33:30.283Z,5.86
2019-02-19T05:34:30.220Z,5.85
2019-02-19T05:35:30.195Z,5.90
2019-02-19T05:36:30.246Z,5.91
2019-02-19T05:37:30.179Z,5.79
2019-02-19T05:38:30.159Z,5.85
2019-02-19T05:39:30.147Z,5.83
2019-02-19T05:40:30.195Z,5.90
2019-02-19T05:41:30.127Z,5.82
2019-02-19T05:42:30.135Z,5.86
2019-02-19T05:43:30.146Z,5.82
2019-02-19T05:44:30.112Z,5.82
2019-02-19T05:45:30.085Z,5.74
2019-02-19T05:46:30.123Z,5.75
2019-02-19T05:47:30.067Z,5.76
2019-02-19T05:48:30.079Z,5.72
2019-02-19T05:49:30.070Z,5.81
2019-02-19T05:50:30.070Z,5.85
2019-02-19T05:51:30.072Z,5.78
2019-02-19T05:52:30.053Z,5.81
2019-02-19T05:53:29.999Z,5.76
2019-02-19T05:54:29.995Z,5.75
2019-02-19T05:55:29.977Z,5.79
2019-02-19T05:56:29.967Z,5.72
2019-02-19T05:57:30.012Z,5.81
2019-02-19T05:58:29.989Z,5.71
2019-02-19T05:59:29.934Z,5.74
2019-02-19T06:00:29.927Z,5.65
2019-02-19T06:01:29.915Z,5.76
2019-02-19T06:02:29.950Z,5.67
2019-02-19T06:03:29.900Z,5.72
2019-02-19T06:04:29.884Z,5.74
2019-02-19T06:05:29.863Z,5.71
2019-02-19T06:06:29.916Z,5.65
2019-02-19T06:07:29.844Z,5.68
2019-02-19T06:08:29.840Z,5.75
2019-02-19T06:09:29.829Z,5.72
2019-02-19T06:10:29.809Z,5.74
2019-02-19T06:11:29.802Z,5.79
2019-02-19T06:12:29.830Z,5.68
2019-02-19T06:13:29.825Z,5.65
2019-02-19T06:14:29.776Z,5.67
2019-02-19T06:15:29.769Z,5.78
2019-02-19T06:16:29.746Z,5.79
2019-02-19T06:17:29.749Z,5.75
2019-02-19T06:18:29.798Z,5.78
2019-02-19T06:19:29.711Z,5.85
2019-02-19T06:20:29.780Z,5.85
2019-02-19T06:21:29.699Z,5.89
2019-02-19T06:22:29.692Z,5.83
2019-02-19T06:23:29.757Z,5.91
2019-02-19T06:24:29.663Z,5.78
2019-02-19T06:25:29.646Z,5.78
2019-02-19T06:26:29.633Z,5.83
2019-02-19T06:27:29.633Z,5.85
2019-02-19T06:28:29.622Z,5.82
2019-02-19T06:29:29.649Z,5.89
2019-02-19T06:30:29.652Z,5.85
2019-02-19T06:31:29.579Z,5.89
2019-02-19T06:32:29.567Z,5.90
2019-02-19T06:33:29.567Z,5.89
2019-02-19T06:34:29.553Z,5.86
2019-02-19T06:35:29.581Z,5.89
2019-02-19T06:36:29.564Z,5.85
2019-02-19T06:37:29.521Z,5.97
2019-02-19T06:38:29.501Z,5.90
2019-02-19T06:39:29.546Z,5.85
2019-02-19T06:40:29.497Z,5.94
2019-02-19T06:41:29.528Z,5.86
2019-02-19T06:42:30.405Z,5.94
2019-02-19T06:43:29.452Z,5.94
2019-02-19T06:44:29.438Z,5.90
2019-02-19T06:45:29.429Z,6.03
2019-02-19T06:46:29.424Z,6.01
2019-02-19T06:47:29.446Z,6.01
2019-02-19T06:48:29.391Z,6.00
2019-02-19T06:49:29.391Z,5.94
2019-02-19T06:50:29.412Z,5.91
2019-02-19T06:51:29.389Z,5.96
2019-02-19T06:52:29.395Z,5.96
2019-02-19T06:53:29.351Z,5.93
2019-02-19T06:54:29.339Z,5.94
2019-02-19T06:55:29.325Z,6.04
2019-02-19T06:56:29.368Z,6.01
2019-02-19T06:57:29.346Z,6.06
2019-02-19T06:58:29.311Z,6.08
2019-02-19T06:59:29.276Z,6.06
2019-02-19T07:00:29.311Z,6.12
2019-02-19T07:01:29.306Z,6.15
2019-02-19T07:02:29.266Z,6.11
2019-02-19T07:03:29.225Z,6.17
2019-02-19T07:04:29.218Z,6.18
2019-02-19T07:05:29.205Z,6.18
2019-02-19T07:06:30.643Z,6.18
2019-02-19T07:07:29.283Z,6.25
2019-02-19T07:08:29.275Z,6.19
2019-02-19T07:09:29.180Z,6.19
2019-02-19T07:10:29.158Z,6.15
2019-02-19T07:11:29.140Z,6.08
2019-02-19T07:12:29.132Z,6.12
2019-02-19T07:13:29.121Z,6.03
2019-02-19T07:14:29.158Z,6.19
2019-02-19T07:15:29.102Z,6.06
2019-02-19T07:16:29.087Z,6.21
2019-02-19T07:17:29.078Z,6.19
2019-02-19T07:18:29.061Z,6.15
2019-02-19T07:19:29.058Z,6.17
2019-02-19T07:20:29.121Z,6.21
2019-02-19T07:21:29.034Z,6.25
2019-02-19T07:22:29.022Z,6.22
2019-02-19T07:23:29.012Z,6.22
2019-02-19T07:24:29.043Z,6.27
2019-02-19T07:25:28.996Z,6.28
2019-02-19T07:26:28.982Z,6.22
2019-02-19T07:27:28.965Z,6.25
2019-02-19T07:28:28.985Z,6.31
2019-02-19T07:29:29.444Z,6.33
2019-02-19T07:30:28.928Z,6.38
2019-02-19T07:31:28.918Z,6.38
2019-02-19T07:32:28.930Z,6.46
2019-02-19T07:33:28.933Z,6.40
2019-02-19T07:34:28.925Z,6.38
2019-02-19T07:35:28.914Z,6.52
2019-02-19T07:36:28.894Z,6.48
2019-02-19T07:37:28.875Z,6.52
2019-02-19T07:38:28.843Z,6.51
2019-02-19T07:39:28.835Z,6.51
2019-02-19T07:40:28.873Z,6.59
2019-02-19T07:41:28.811Z,6.58
2019-02-19T07:42:28.827Z,6.58
2019-02-19T07:43:28.785Z,6.70
2019-02-19T07:44:28.779Z,6.66
2019-02-19T07:45:28.774Z,6.66
2019-02-19T07:46:28.885Z,6.80
2019-02-19T07:47:28.750Z,6.77
2019-02-19T07:48:28.802Z,6.74
2019-02-19T07:49:28.725Z,6.79
2019-02-19T07:50:28.707Z,6.85
2019-02-19T07:51:28.695Z,6.85
2019-02-19T07:52:28.742Z,6.94
2019-02-19T07:53:28.700Z,6.98
2019-02-19T07:54:28.670Z,6.95
2019-02-19T07:55:28.664Z,6.97
2019-02-19T07:56:28.687Z,7.10
2019-02-19T07:57:28.634Z,7.07
2019-02-19T07:58:28.619Z,7.09
2019-02-19T07:59:28.616Z,7.13
2019-02-19T08:00:28.606Z,7.03
2019-02-19T08:01:28.614Z,7.05
2019-02-19T08:02:28.625Z,7.13
2019-02-19T08:03:28.568Z,7.13
2019-02-19T08:04:28.553Z,7.25
2019-02-19T08:05:28.560Z,7.10
2019-02-19T08:06:28.534Z,7.24
2019-02-19T08:07:28.573Z,7.13
2019-02-19T08:08:28.508Z,7.20
2019-02-19T08:09:28.522Z,7.27
2019-02-19T08:10:28.487Z,7.27
2019-02-19T08:11:28.475Z,7.34
2019-02-19T08:12:28.466Z,7.23
2019-02-19T08:13:28.497Z,7.48
2019-02-19T08:14:28.664Z,7.37
2019-02-19T08:15:28.432Z,7.35
2019-02-19T08:16:28.424Z,7.46
2019-02-19T08:17:33.394Z,7.52
2019-02-19T08:18:29.484Z,7.48
2019-02-19T08:19:28.458Z,7.53
2019-02-19T08:20:28.408Z,7.57
2019-02-19T08:21:28.371Z,7.52
2019-02-19T08:22:28.369Z,7.64
2019-02-19T08:23:29.900Z,7.60
2019-02-19T08:24:28.360Z,7.75
2019-02-19T08:25:28.332Z,7.72
2019-02-19T08:26:28.322Z,7.80
2019-02-19T08:27:28.301Z,7.79
2019-02-19T08:28:28.305Z,7.85
2019-02-19T08:29:28.335Z,7.87
2019-02-19T08:30:28.283Z,7.97
2019-02-19T08:31:28.268Z,8.00
2019-02-19T08:32:28.259Z,8.05
2019-02-19T08:33:28.282Z,8.05
2019-02-19T08:34:28.279Z,8.15
2019-02-19T08:35:28.218Z,8.11
2019-02-19T08:36:29.670Z,8.16
2019-02-19T08:37:28.200Z,8.16
2019-02-19T08:38:28.181Z,8.15
2019-02-19T08:39:28.211Z,8.22
2019-02-19T08:40:28.204Z,8.30
2019-02-19T08:41:28.149Z,8.22
2019-02-19T08:42:28.157Z,8.20
2019-02-19T08:43:28.130Z,8.38
2019-02-19T08:44:28.173Z,8.34
2019-02-19T08:45:28.107Z,8.43
2019-02-19T08:46:28.097Z,8.38
2019-02-19T08:47:28.080Z,8.58
2019-02-19T08:48:28.076Z,8.58
2019-02-19T08:49:28.061Z,8.50
2019-02-19T08:50:28.092Z,8.50
2019-02-19T08:51:28.034Z,8.53
2019-02-19T08:52:28.054Z,8.53
2019-02-19T08:53:28.012Z,8.52
2019-02-19T08:54:28.020Z,8.52
2019-02-19T08:55:28.056Z,8.66
2019-02-19T08:56:27.995Z,8.55
2019-02-19T08:57:27.972Z,8.61
2019-02-19T08:58:27.968Z,8.62
2019-02-19T08:59:27.959Z,8.63
2019-02-19T09:00:27.963Z,8.58
2019-02-19T09:01:28.067Z,8.73
2019-02-19T09:02:28.621Z,8.81
2019-02-19T09:03:27.965Z,8.83
2019-02-19T09:04:27.919Z,8.81
2019-02-19T09:05:27.899Z,8.83
2019-02-19T09:06:27.940Z,8.76
2019-02-19T09:07:27.865Z,8.92
2019-02-19T09:08:27.876Z,8.91
2019-02-19T09:09:27.887Z,9.02
2019-02-19T09:10:27.842Z,9.05
2019-02-19T09:11:27.815Z,9.01
2019-02-19T09:12:27.851Z,9.20
2019-02-19T09:13:27.800Z,9.15
2019-02-19T09:14:27.812Z,9.17
2019-02-19T09:15:27.783Z,9.18
2019-02-19T09:16:27.762Z,9.24
2019-02-19T09:17:27.806Z,9.17
2019-02-19T09:18:27.743Z,9.14
2019-02-19T09:19:27.735Z,9.15
2019-02-19T09:20:27.738Z,9.13
2019-02-19T09:21:27.709Z,9.24
2019-02-19T09:22:27.699Z,9.18
2019-02-19T09:23:27.758Z,9.17
2019-02-19T09:24:27.680Z,9.18
2019-02-19T09:25:27.675Z,9.14
2019-02-19T09:26:27.659Z,9.23
2019-02-19T09:27:27.692Z,9.14
2019-02-19T09:28:27.636Z,9.21
2019-02-19T09:29:27.624Z,9.17
2019-02-19T09:30:27.613Z,9.17
2019-02-19T09:31:27.615Z,9.18
2019-02-19T09:32:27.590Z,9.21
2019-02-19T09:33:27.633Z,9.26
2019-02-19T09:34:27.562Z,9.23
2019-02-19T09:35:27.553Z,9.20
2019-02-19T09:36:27.544Z,9.28
2019-02-19T09:37:27.532Z,9.29
2019-02-19T09:38:27.519Z,9.23
2019-02-19T09:39:27.571Z,9.26
2019-02-19T09:40:27.534Z,9.24
2019-02-19T09:41:27.507Z,9.29
2019-02-19T09:42:27.489Z,9.29
2019-02-19T09:43:35.292Z,9.33
2019-02-19T09:44:28.495Z,9.28
2019-02-19T09:45:27.487Z,9.33
2019-02-19T09:46:27.485Z,9.31
2019-02-19T09:47:27.442Z,9.26
2019-02-19T09:48:27.414Z,9.21
2019-02-19T09:49:27.399Z,9.20
2019-02-19T09:50:27.446Z,9.26
2019-02-19T09:51:27.376Z,9.23
2019-02-19T09:52:27.365Z,9.23
2019-02-19T09:53:27.356Z,9.23
2019-02-19T09:54:27.351Z,9.26
2019-02-19T09:55:27.404Z,9.26
2019-02-19T09:56:27.327Z,9.20
2019-02-19T09:57:27.314Z,9.21
2019-02-19T09:58:27.305Z,9.31
2019-02-19T09:59:27.315Z,9.24
2019-02-19T10:00:27.285Z,9.17
2019-02-19T10:01:28.379Z,9.23
2019-02-19T10:02:27.263Z,9.11
2019-02-19T10:03:27.270Z,9.11
2019-02-19T10:04:27.247Z,9.23
2019-02-19T10:05:27.236Z,9.17
2019-02-19T10:06:27.252Z,9.17
2019-02-19T10:07:27.247Z,9.14
2019-02-19T10:08:27.206Z,9.10
2019-02-19T10:09:27.177Z,9.15
2019-02-19T10:10:27.168Z,9.17
2019-02-19T10:11:27.170Z,9.14
2019-02-19T10:12:27.198Z,9.26
2019-02-19T10:13:27.164Z,9.18
2019-02-19T10:14:27.141Z,9.26
2019-02-19T10:15:27.176Z,9.17
2019-02-19T10:16:27.113Z,9.20
2019-02-19T10:17:27.154Z,9.15
2019-02-19T10:18:27.088Z,9.18
2019-02-19T10:19:27.074Z,9.13
2019-02-19T10:20:27.091Z,9.14
2019-02-19T10:21:27.063Z,9.14
2019-02-19T10:22:27.040Z,8.94
2019-02-19T10:23:27.090Z,8.95
2019-02-19T10:24:27.029Z,8.96
2019-02-19T10:25:27.052Z,9.05
2019-02-19T10:26:26.999Z,9.04
2019-02-19T10:27:27.073Z,8.95
2019-02-19T10:28:26.989Z,9.01
2019-02-19T10:29:26.964Z,9.01
2019-02-19T10:30:26.967Z,9.10
2019-02-19T10:31:26.950Z,9.24
2019-02-19T10:32:26.959Z,9.26
2019-02-19T10:33:26.957Z,9.32
2019-02-19T10:34:26.958Z,9.39
2019-02-19T10:35:26.901Z,9.33
2019-02-19T10:36:26.904Z,9.38
2019-02-19T10:37:26.885Z,9.38
2019-02-19T10:38:26.862Z,9.40
2019-02-19T10:39:26.880Z,9.40
2019-02-19T10:40:26.905Z,9.39
2019-02-19T10:41:26.841Z,9.35
2019-02-19T10:42:26.820Z,9.28
2019-02-19T10:43:26.806Z,9.15
2019-02-19T10:44:26.864Z,9.13
2019-02-19T10:45:27.843Z,9.15
2019-02-19T10:46:26.777Z,9.15
2019-02-19T10:47:26.770Z,9.17
2019-02-19T10:48:26.787Z,9.13
2019-02-19T10:49:26.756Z,9.18
2019-02-19T10:50:26.747Z,9.17
2019-02-19T10:51:26.797Z,9.15
2019-02-19T10:52:26.720Z,9.17
2019-02-19T10:53:26.701Z,9.24
2019-02-19T10:54:26.695Z,9.18
2019-02-19T10:55:26.688Z,9.17
2019-02-19T10:56:26.720Z,9.26
2019-02-19T10:57:26.652Z,9.21
2019-02-19T10:58:26.653Z,9.23
2019-02-19T10:59:26.646Z,9.29
2019-02-19T11:00:26.620Z,9.26
2019-02-19T11:01:26.657Z,9.28
2019-02-19T11:02:26.620Z,9.33
2019-02-19T11:03:26.588Z,9.33
2019-02-19T11:04:26.592Z,9.32
2019-02-19T11:05:26.599Z,9.38
2019-02-19T11:06:26.604Z,9.42
2019-02-19T11:07:26.555Z,9.32
2019-02-19T11:08:26.553Z,9.36
2019-02-19T11:09:26.523Z,9.35
2019-02-19T11:10:26.520Z,9.40
2019-02-19T11:11:26.556Z,9.39
2019-02-19T11:12:26.519Z,9.40
2019-02-19T11:13:26.537Z,9.39
2019-02-19T11:14:26.465Z,9.38
2019-02-19T11:15:26.456Z,9.40
2019-02-19T11:16:26.456Z,9.48
2019-02-19T11:17:26.480Z,9.38
2019-02-19T11:18:28.693Z,9.38
2019-02-19T11:19:26.413Z,9.32
2019-02-19T11:20:26.406Z,9.35
2019-02-19T11:21:26.396Z,9.42
2019-02-19T11:22:26.432Z,9.46
2019-02-19T11:23:26.404Z,9.65
2019-02-19T11:24:26.363Z,9.60
2019-02-19T11:25:26.345Z,9.51
2019-02-19T11:26:26.338Z,9.60
2019-02-19T11:27:26.329Z,9.64
2019-02-19T11:28:26.357Z,9.64
2019-02-19T11:29:26.304Z,9.58
2019-02-19T11:30:26.290Z,9.56
2019-02-19T11:31:26.281Z,9.61
2019-02-19T11:32:26.449Z,9.58
2019-02-19T11:33:26.292Z,9.71
2019-02-19T11:34:26.251Z,9.69
2019-02-19T11:35:26.261Z,9.75
2019-02-19T11:36:26.223Z,9.76
2019-02-19T11:37:26.209Z,9.71
2019-02-19T11:38:26.271Z,9.69
2019-02-19T11:39:26.207Z,9.68
2019-02-19T11:40:26.195Z,9.74
2019-02-19T11:41:26.165Z,9.72
2019-02-19T11:42:26.154Z,9.66
2019-02-19T11:43:26.155Z,9.71
2019-02-19T11:44:26.214Z,9.71
2019-02-19T11:45:26.138Z,9.72
2019-02-19T11:46:26.114Z,9.71
2019-02-19T11:47:26.720Z,9.72
2019-02-19T11:48:26.098Z,9.83
2019-02-19T11:49:26.132Z,9.86
2019-02-19T11:50:26.085Z,9.75
2019-02-19T11:51:26.059Z,9.68
2019-02-19T11:52:26.048Z,9.72
2019-02-19T11:53:26.037Z,9.69
2019-02-19T11:54:26.085Z,9.65
2019-02-19T11:55:26.021Z,9.58
2019-02-19T11:56:26.004Z,9.56
2019-02-19T11:57:25.988Z,9.54
2019-02-19T11:58:26.009Z,9.53
2019-02-19T11:59:25.987Z,9.54
2019-02-19T12:00:26.010Z,9.54
2019-02-19T12:01:26.025Z,9.64
2019-02-19T12:02:32.778Z,9.58
2019-02-19T12:03:26.925Z,9.57
2019-02-19T12:04:25.924Z,9.54
2019-02-19T12:05:25.954Z,9.61
2019-02-19T12:06:25.891Z,9.58
2019-02-19T12:07:25.900Z,9.71
2019-02-19T12:08:25.867Z,9.72
2019-02-19T12:09:25.866Z,9.64
2019-02-19T12:10:25.946Z,9.75
2019-02-19T12:11:25.866Z,9.72
2019-02-19T12:12:25.849Z,9.75
2019-02-19T12:13:25.818Z,9.83
2019-02-19T12:14:25.852Z,9.89
2019-02-19T12:15:34.726Z,9.89
2019-02-19T12:16:26.838Z,9.93
2019-02-19T12:17:25.792Z,10.05
2019-02-19T12:18:25.783Z,10.14
2019-02-19T12:19:25.747Z,10.08
2019-02-19T12:20:25.743Z,10.14
2019-02-19T12:21:25.832Z,10.08
2019-02-19T12:22:25.717Z,10.17
2019-02-19T12:23:25.707Z,10.04
2019-02-19T12:24:25.722Z,10.08
2019-02-19T12:25:25.693Z,10.07
2019-02-19T12:26:25.686Z,9.97
2019-02-19T12:27:25.764Z,9.99
2019-02-19T12:28:25.646Z,9.99
2019-02-19T12:29:25.633Z,9.89
2019-02-19T12:30:25.650Z,9.91
2019-02-19T12:31:25.613Z,9.89
2019-02-19T12:32:25.602Z,9.86
2019-02-19T12:33:25.669Z,9.89
2019-02-19T12:34:25.651Z,9.89
2019-02-19T12:35:25.592Z,9.87
2019-02-19T12:36:25.569Z,9.89
2019-02-19T12:37:25.610Z,9.87
2019-02-19T12:38:25.553Z,9.86
2019-02-19T12:39:25.552Z,9.89
2019-02-19T12:40:25.518Z,9.93
2019-02-19T12:41:25.512Z,9.94
2019-02-19T12:42:25.555Z,9.87
2019-02-19T12:43:25.481Z,9.87
2019-02-19T12:44:25.566Z,9.87
2019-02-19T12:45:25.461Z,10.01
2019-02-19T12:46:25.452Z,10.07
2019-02-19T12:47:25.439Z,10.11
2019-02-19T12:48:25.470Z,10.11
2019-02-19T12:49:25.417Z,10.04
2019-02-19T12:50:25.408Z,10.05
2019-02-19T12:51:26.748Z,9.96
2019-02-19T12:52:25.416Z,9.90
2019-02-19T12:53:25.423Z,9.89
2019-02-19T12:54:25.385Z,9.93
2019-02-19T12:55:25.365Z,9.94
2019-02-19T12:56:25.343Z,9.87
2019-02-19T12:57:25.339Z,9.93
2019-02-19T12:58:25.321Z,10.01
2019-02-19T12:59:25.347Z,10.02
2019-02-19T13:00:25.293Z,10.02
2019-02-19T13:01:25.334Z,10.15
2019-02-19T13:02:25.272Z,10.05
2019-02-19T13:03:25.307Z,10.20
2019-02-19T13:04:25.249Z,10.11
2019-02-19T13:05:25.230Z,10.17
2019-02-19T13:06:25.229Z,10.20
2019-02-19T13:07:25.216Z,10.20
2019-02-19T13:08:25.221Z,10.27
2019-02-19T13:09:25.227Z,10.20
2019-02-19T13:10:25.237Z,10.23
2019-02-19T13:11:25.178Z,10.14
2019-02-19T13:12:25.155Z,10.04
2019-02-19T13:13:25.148Z,10.02
2019-02-19T13:14:25.153Z,10.04
2019-02-19T13:15:25.133Z,10.02
2019-02-19T13:16:25.193Z,10.05
2019-02-19T13:17:25.128Z,10.14